Terminal Aerodrome Forecast
Issued by NWS

Current Version | Previous Version | Text Only | Print | Product List | Glossary On
Versions: 1 2 3 4 5 6 7 8 9 10 11 12 13 14 15 16 17 18
000
FTUS44 KLIX 290559 AAA
TAFGPT
TAF AMD
KGPT 290559Z 2906/3006 00000KT P6SM SKC
      TEMPO 2906/2910 4SM BR
     FM291000 00000KT P6SM FEW050
     FM291800 16006KT P6SM SCT250
     FM292300 23005KT P6SM FEW250=

USA.gov is the U.S. government's official web portal to all federal, state and local government web resources and services.